createdAt,value
2022-11-13T06:03:06.371Z,11.70
2022-11-13T06:08:28.726Z,11.70
2022-11-13T06:13:51.849Z,11.80
2022-11-13T06:19:15.189Z,11.90
2022-11-13T06:24:37.042Z,12.00
2022-11-13T06:29:58.805Z,12.10
2022-11-13T06:35:22.146Z,12.20
2022-11-13T06:40:44.085Z,12.20
2022-11-13T06:46:07.336Z,12.20
2022-11-13T06:51:31.766Z,12.20
2022-11-13T06:56:53.785Z,12.20
2022-11-13T07:02:15.585Z,12.20
2022-11-13T07:07:38.903Z,12.20
2022-11-13T07:13:01.569Z,12.20
2022-11-13T07:18:24.252Z,12.20
2022-11-13T07:23:49.377Z,12.20
2022-11-13T07:29:12.628Z,12.10
2022-11-13T07:34:34.411Z,12.10
2022-11-13T07:39:57.506Z,12.00
2022-11-13T07:45:19.671Z,12.10
2022-11-13T07:50:41.652Z,12.20
2022-11-13T07:56:05.282Z,12.20
2022-11-13T08:01:27.492Z,12.30
2022-11-13T08:06:49.371Z,12.30
2022-11-13T08:12:12.247Z,12.40
2022-11-13T08:17:34.235Z,12.50
2022-11-13T08:22:58.418Z,12.70
2022-11-13T08:28:21.820Z,12.70
2022-11-13T08:33:44.430Z,12.80
2022-11-13T08:39:06.345Z,12.90
2022-11-13T08:44:29.733Z,13.10
2022-11-13T08:49:51.577Z,13.10
2022-11-13T08:55:13.292Z,13.00
2022-11-13T09:00:36.529Z,13.00
2022-11-13T09:05:58.231Z,13.10
2022-11-13T09:11:20.341Z,13.10
2022-11-13T09:16:43.488Z,13.30
2022-11-13T09:22:05.437Z,13.40
2022-11-13T09:27:27.401Z,13.60
2022-11-13T09:32:54.110Z,13.70
2022-11-13T09:38:17.292Z,13.70
2022-11-13T09:43:43.479Z,13.80
2022-11-13T09:49:17.579Z,13.90
2022-11-13T09:54:39.883Z,14.20
2022-11-13T10:00:04.579Z,14.40
2022-11-13T10:05:38.492Z,14.70
2022-11-13T10:11:09.077Z,14.90
2022-11-13T10:16:34.348Z,15.10
2022-11-13T10:22:31.060Z,15.40
2022-11-13T10:27:46.485Z,15.80
2022-11-13T10:33:10.619Z,16.30
2022-11-13T10:38:42.943Z,16.80
2022-11-13T10:44:19.755Z,17.40
2022-11-13T10:49:41.599Z,18.20
2022-11-13T10:55:17.214Z,19.10
2022-11-13T11:00:41.542Z,19.50
2022-11-13T11:06:05.617Z,20.20
2022-11-13T11:11:46.267Z,20.80
2022-11-13T11:17:09.039Z,21.50
2022-11-13T11:22:34.960Z,21.90
2022-11-13T11:28:03.502Z,22.30
2022-11-13T11:33:33.060Z,22.80
2022-11-13T11:39:00.669Z,23.10
2022-11-13T11:44:30.703Z,23.40
2022-11-13T11:49:52.700Z,24.00
2022-11-13T11:55:38.610Z,24.50
2022-11-13T12:01:06.022Z,24.50
2022-11-13T12:06:41.713Z,24.80
2022-11-13T12:12:12.694Z,25.20
2022-11-13T12:17:50.180Z,25.40
2022-11-13T12:23:37.880Z,25.00
2022-11-13T12:29:09.808Z,25.10
2022-11-13T12:34:39.308Z,25.20
2022-11-13T12:40:06.961Z,25.50
2022-11-13T12:45:41.463Z,25.70
2022-11-13T12:51:07.661Z,25.60
2022-11-13T12:56:33.911Z,25.70
2022-11-13T13:02:05.285Z,25.60
2022-11-13T13:07:45.215Z,25.60
2022-11-13T13:13:20.964Z,25.60
2022-11-13T13:18:45.751Z,25.60
2022-11-13T13:24:30.102Z,25.30
2022-11-13T13:29:51.967Z,25.00
2022-11-13T13:35:18.821Z,24.90
2022-11-13T13:40:54.023Z,24.90
2022-11-13T13:46:18.865Z,24.90
2022-11-13T13:51:43.778Z,25.00
2022-11-13T13:57:12.208Z,25.20
2022-11-13T14:02:34.005Z,25.60
2022-11-13T14:07:56.327Z,26.00
2022-11-13T14:13:26.717Z,26.20
2022-11-13T14:18:48.484Z,26.30
2022-11-13T14:24:16.290Z,26.10
2022-11-13T14:29:46.088Z,26.00
2022-11-13T14:35:09.766Z,25.70
2022-11-13T14:40:33.984Z,25.50
2022-11-13T14:45:59.600Z,25.20
2022-11-13T14:51:25.690Z,24.90
2022-11-13T14:56:47.470Z,24.70
2022-11-13T15:02:12.979Z,24.30
2022-11-13T15:07:35.658Z,23.90
2022-11-13T15:12:57.657Z,23.50
2022-11-13T15:18:21.209Z,23.10
2022-11-13T15:23:43.020Z,22.80
2022-11-13T15:29:05.342Z,22.60
2022-11-13T15:34:28.652Z,22.30
2022-11-13T15:39:50.330Z,22.10
2022-11-13T15:45:16.419Z,21.70
2022-11-13T15:50:39.819Z,21.40
2022-11-13T15:56:05.069Z,21.10
2022-11-13T16:01:26.932Z,20.80
2022-11-13T16:06:50.553Z,20.50
2022-11-13T16:12:13.560Z,20.20
2022-11-13T16:17:42.427Z,19.90
2022-11-13T16:23:05.483Z,19.60
2022-11-13T16:28:27.159Z,19.40
2022-11-13T16:33:48.764Z,19.20
2022-11-13T16:39:17.100Z,18.90
2022-11-13T16:44:39.251Z,18.80
2022-11-13T16:50:02.075Z,18.60
2022-11-13T16:55:25.339Z,18.50
2022-11-13T17:00:47.180Z,18.40
2022-11-13T17:06:14.186Z,18.30
2022-11-13T17:11:37.240Z,18.20
2022-11-13T17:16:58.915Z,18.00
2022-11-13T17:22:20.519Z,17.90
2022-11-13T17:27:44.352Z,17.70
2022-11-13T17:33:06.035Z,17.60
2022-11-13T17:38:28.743Z,17.40
2022-11-13T17:43:52.380Z,17.20
2022-11-13T17:49:17.054Z,17.00
2022-11-13T17:54:38.904Z,16.80
2022-11-13T18:00:01.925Z,16.70
2022-11-13T18:05:24.137Z,16.60
2022-11-13T18:10:45.914Z,16.50
2022-11-13T18:16:11.038Z,16.40
2022-11-13T18:21:34.536Z,16.20
2022-11-13T18:26:56.785Z,16.10
2022-11-13T18:32:20.065Z,16.10
2022-11-13T18:37:41.985Z,16.00
2022-11-13T18:43:03.731Z,15.80
2022-11-13T18:48:30.866Z,15.80
2022-11-13T18:53:53.258Z,15.60
2022-11-13T18:59:15.020Z,15.60
2022-11-13T19:04:38.166Z,15.50
2022-11-13T19:09:59.904Z,15.50
2022-11-13T19:15:21.482Z,15.50
2022-11-13T19:20:44.604Z,15.50
2022-11-13T19:26:07.231Z,15.50
2022-11-13T19:31:29.229Z,15.40
2022-11-13T19:36:53.114Z,15.40
2022-11-13T19:42:14.921Z,15.30
2022-11-13T19:47:36.688Z,15.20
2022-11-13T19:52:59.869Z,15.10
2022-11-13T19:58:21.762Z,15.00
2022-11-13T20:03:44.067Z,14.90
2022-11-13T20:09:07.780Z,14.90
2022-11-13T20:14:34.371Z,14.90
2022-11-13T20:19:59.211Z,14.90
2022-11-13T20:25:22.962Z,14.80
2022-11-13T20:30:45.284Z,14.70
2022-11-13T20:36:08.183Z,14.60
2022-11-13T20:41:31.460Z,14.50
2022-11-13T20:46:53.120Z,14.40
2022-11-13T20:52:14.932Z,14.40
2022-11-13T20:57:41.024Z,14.30
2022-11-13T21:03:03.766Z,14.20
2022-11-13T21:08:26.499Z,14.10
2022-11-13T21:13:51.364Z,14.10
2022-11-13T21:19:13.549Z,14.10
2022-11-13T21:24:37.902Z,14.10
2022-11-13T21:30:01.336Z,14.00
2022-11-13T21:35:23.027Z,13.90
2022-11-13T21:41:04.718Z,13.90
2022-11-13T21:46:29.838Z,13.90
2022-11-13T21:51:51.298Z,13.90
2022-11-13T21:57:14.330Z,12.80
2022-11-13T22:02:37.727Z,13.90
2022-11-13T22:07:59.577Z,13.90
2022-11-13T22:13:21.132Z,13.90
2022-11-13T22:18:44.297Z,13.80
2022-11-13T22:24:07.817Z,13.80
2022-11-13T22:29:29.539Z,13.80
2022-11-13T22:34:52.562Z,13.80
2022-11-13T22:40:14.630Z,13.80
2022-11-13T22:45:36.537Z,13.70
2022-11-13T22:51:03.949Z,13.70
2022-11-13T22:56:27.329Z,13.50
2022-11-13T23:01:49.098Z,13.50
2022-11-13T23:07:12.322Z,13.50
2022-11-13T23:12:34.145Z,13.30
2022-11-13T23:17:55.781Z,13.10
2022-11-13T23:23:18.808Z,13.10
2022-11-13T23:28:40.842Z,13.00
